Time;durP1;ratioP1;P1;durP2;ratioP2;P2;SDS_P1;SDS_P2;PMS_P1;PMS_P2;Temp;Humidity;BMP_temperature;BMP_pressure;BME280_temperature;BME280_humidity;BME280_pressure;Samples;Min_cycle;Max_cycle;Signal;HPM_P1;HPM_P2
2023/09/04 00:02:07;;;;;;;5.43;4.10;;;15.00;99.90;;;;;;5063641;28;20044;-73
2023/09/04 00:04:33;;;;;;;7.03;4.03;;;15.00;99.90;;;;;;5048997;28;20056;-73
2023/09/04 00:06:58;;;;;;;7.60;4.22;;;15.00;99.90;;;;;;5058070;28;20029;-73
2023/09/04 00:09:24;;;;;;;6.18;4.35;;;15.00;99.90;;;;;;5041978;28;20398;-72
2023/09/04 00:11:52;;;;;;;6.60;4.47;;;15.00;99.90;;;;;;5064328;28;20047;-73
2023/09/04 00:14:20;;;;;;;6.72;4.00;;;14.90;99.90;;;;;;5057546;28;20059;-72
2023/09/04 00:16:46;;;;;;;5.90;3.85;;;14.90;99.90;;;;;;5047304;28;20049;-73
2023/09/04 00:19:12;;;;;;;5.75;4.40;;;14.90;99.90;;;;;;5062653;28;20033;-72
2023/09/04 00:21:37;;;;;;;6.47;3.95;;;14.80;99.90;;;;;;5045638;28;20486;-73
2023/09/04 00:24:03;;;;;;;7.28;4.45;;;14.80;99.90;;;;;;5048206;28;20048;-73
2023/09/04 00:26:32;;;;;;;7.57;4.47;;;14.80;99.90;;;;;;5060719;28;20043;-72
2023/09/04 00:28:58;;;;;;;8.77;4.50;;;14.80;99.90;;;;;;5045437;28;20115;-72
2023/09/04 00:31:23;;;;;;;6.65;4.05;;;14.80;99.90;;;;;;5066690;28;20037;-72
2023/09/04 00:33:49;;;;;;;5.75;4.07;;;14.80;99.90;;;;;;5045436;28;20106;-72
2023/09/04 00:36:15;;;;;;;6.93;4.38;;;14.70;99.90;;;;;;5039755;28;20546;-72
2023/09/04 00:38:40;;;;;;;5.97;4.30;;;14.70;99.90;;;;;;5040277;28;20048;-72
2023/09/04 00:41:06;;;;;;;6.20;4.10;;;14.70;99.90;;;;;;5066101;28;20044;-72
2023/09/04 00:43:35;;;;;;;8.45;5.50;;;14.60;99.90;;;;;;5044621;28;20131;-73
2023/09/04 00:46:03;;;;;;;7.85;4.95;;;14.60;99.90;;;;;;5044032;28;20048;-73
2023/09/04 00:48:29;;;;;;;8.07;4.85;;;14.50;99.90;;;;;;5044864;28;20445;-73
2023/09/04 00:50:56;;;;;;;6.13;4.50;;;14.50;99.90;;;;;;5047464;28;20568;-72
2023/09/04 00:53:21;;;;;;;;;;;14.50;99.90;;;;;;5059258;28;20230;-73
2023/09/04 00:55:51;;;;;;;9.02;4.65;;;14.50;99.90;;;;;;5046511;28;19920;-73
2023/09/04 00:58:17;;;;;;;7.68;4.30;;;14.50;99.90;;;;;;5044459;28;20101;-73
2023/09/04 01:00:46;;;;;;;9.20;4.75;;;14.50;99.90;;;;;;5060924;28;20041;-73
2023/09/04 01:03:12;;;;;;;8.65;6.03;;;14.40;99.90;;;;;;5043295;28;20101;-73
2023/09/04 01:05:38;;;;;;;;;;;14.40;99.90;;;;;;5047136;28;20261;-73
2023/09/04 01:08:14;;;;;;;8.20;5.22;;;14.40;99.90;;;;;;5043118;28;19917;-73
2023/09/04 01:10:54;;;;;;;6.75;4.57;;;14.40;99.90;;;;;;5045512;28;20040;-72
2023/09/04 01:13:28;;;;;;;11.60;4.88;;;14.40;99.90;;;;;;5050105;28;20036;-73
2023/09/04 01:15:55;;;;;;;6.28;4.15;;;14.40;99.90;;;;;;5050995;28;20032;-73
2023/09/04 01:18:22;;;;;;;8.55;4.68;;;14.40;99.90;;;;;;5059045;28;20348;-73
2023/09/04 01:21:00;;;;;;;7.20;4.45;;;14.40;99.90;;;;;;5044507;28;20568;-72
2023/09/04 01:23:28;;;;;;;8.73;4.63;;;14.40;99.90;;;;;;5052003;28;20513;-72
2023/09/04 01:26:36;;;;;;;7.15;5.00;;;14.40;99.90;;;;;;5047465;28;20198;-73
2023/09/04 01:29:16;;;;;;;6.35;4.63;;;14.40;99.90;;;;;;5044968;28;20084;-73
2023/09/04 01:31:56;;;;;;;7.47;5.07;;;14.40;99.90;;;;;;5049182;28;20076;-73
2023/09/04 01:34:30;;;;;;;6.60;4.70;;;14.40;99.90;;;;;;5040843;28;20037;-73
2023/09/04 01:36:57;;;;;;;8.38;5.18;;;14.30;99.90;;;;;;5044545;28;20512;-74
2023/09/04 01:39:25;;;;;;;10.70;5.18;;;14.30;99.90;;;;;;5038953;28;20051;-74
2023/09/04 01:41:50;;;;;;;7.55;4.35;;;14.30;99.90;;;;;;5045526;28;20037;-73
2023/09/04 01:44:18;;;;;;;6.03;4.20;;;14.30;99.90;;;;;;5042001;28;20455;-73
2023/09/04 01:46:47;;;;;;;6.63;4.60;;;14.20;99.90;;;;;;5066838;28;20490;-73
2023/09/04 01:49:13;;;;;;;6.78;4.50;;;14.30;99.90;;;;;;5059711;28;20048;-73
2023/09/04 01:51:39;;;;;;;6.57;4.57;;;14.20;99.90;;;;;;5042441;28;20041;-73
2023/09/04 01:54:05;;;;;;;6.20;4.80;;;14.20;99.90;;;;;;5053627;28;20073;-73
2023/09/04 01:56:31;;;;;;;7.03;4.28;;;14.20;99.90;;;;;;5038192;28;20406;-73
2023/09/04 01:58:57;;;;;;;6.15;4.22;;;14.20;99.90;;;;;;5046151;28;20082;-73
2023/09/04 02:01:23;;;;;;;6.55;4.55;;;14.20;99.90;;;;;;5046996;28;20507;-73
2023/09/04 02:03:56;;;;;;;8.05;4.32;;;14.20;99.90;;;;;;5051420;28;20056;-73
2023/09/04 02:06:23;;;;;;;5.88;3.55;;;14.20;99.90;;;;;;5044484;28;20109;-73
2023/09/04 02:08:49;;;;;;;6.78;3.85;;;14.20;99.90;;;;;;5043244;28;20040;-73
2023/09/04 02:11:14;;;;;;;5.88;3.60;;;14.20;99.90;;;;;;5056993;28;20197;-73
2023/09/04 02:13:40;;;;;;;6.07;3.75;;;14.10;99.90;;;;;;5049405;28;20509;-73
2023/09/04 02:16:06;;;;;;;6.35;3.90;;;14.10;99.90;;;;;;5062249;28;20046;-73
2023/09/04 02:18:31;;;;;;;5.35;3.80;;;14.10;99.90;;;;;;5047636;28;20044;-73
2023/09/04 02:21:00;;;;;;;6.80;3.55;;;14.10;99.90;;;;;;5056812;28;20506;-73
2023/09/04 02:23:25;;;;;;;4.50;3.28;;;14.00;99.90;;;;;;5064592;28;20048;-73
2023/09/04 02:25:51;;;;;;;5.13;3.80;;;14.00;99.90;;;;;;5049321;28;20045;-72
2023/09/04 02:28:17;;;;;;;4.97;3.70;;;14.00;99.90;;;;;;5041292;28;20045;-73
2023/09/04 02:30:43;;;;;;;6.13;4.20;;;14.00;99.90;;;;;;5043421;28;20044;-73
2023/09/04 02:33:08;;;;;;;6.15;3.63;;;14.00;99.90;;;;;;5047007;28;20052;-74
2023/09/04 02:35:34;;;;;;;5.07;3.60;;;14.00;99.90;;;;;;5038837;28;20040;-69
2023/09/04 02:38:00;;;;;;;4.97;3.92;;;14.00;99.90;;;;;;5051987;28;20033;-70
2023/09/04 02:40:26;;;;;;;5.40;3.53;;;14.00;99.90;;;;;;5041246;28;20044;-73
2023/09/04 02:42:52;;;;;;;4.93;3.28;;;14.00;99.90;;;;;;5042912;28;20049;-72
2023/09/04 02:45:18;;;;;;;5.60;3.85;;;13.90;99.90;;;;;;5060805;28;20043;-73
2023/09/04 02:47:44;;;;;;;6.53;4.13;;;13.90;99.90;;;;;;5061802;28;20553;-73
2023/09/04 02:50:10;;;;;;;5.60;3.33;;;13.90;99.90;;;;;;5048088;28;20048;-74
2023/09/04 02:52:36;;;;;;;5.35;3.58;;;13.90;99.90;;;;;;5060415;28;20120;-70
2023/09/04 02:55:04;;;;;;;4.93;3.85;;;13.90;99.90;;;;;;5042437;28;20190;-69
2023/09/04 02:57:31;;;;;;;9.55;3.92;;;13.90;99.90;;;;;;5045610;28;20898;-70
2023/09/04 02:59:58;;;;;;;6.07;3.80;;;13.80;99.90;;;;;;5064775;28;20043;-70
2023/09/04 03:02:23;;;;;;;5.90;4.00;;;13.80;99.90;;;;;;5020122;28;20128;-71
2023/09/04 03:04:56;;;;;;;5.18;3.72;;;13.80;99.90;;;;;;5033474;28;20123;-70
2023/09/04 03:07:26;;;;;;;5.85;4.00;;;13.80;99.90;;;;;;5050792;28;20033;-70
2023/09/04 03:09:57;;;;;;;6.05;3.85;;;13.80;99.90;;;;;;5049586;28;20320;-71
2023/09/04 03:12:24;;;;;;;6.55;3.72;;;13.80;99.90;;;;;;5050298;28;20036;-70
2023/09/04 03:15:00;;;;;;;6.20;3.92;;;13.70;99.90;;;;;;5050521;28;20048;-70
2023/09/04 03:17:27;;;;;;;6.38;3.42;;;13.70;99.90;;;;;;5044010;28;20052;-70
2023/09/04 03:19:54;;;;;;;5.85;3.90;;;13.70;99.90;;;;;;5045031;28;20052;-70
2023/09/04 03:22:21;;;;;;;5.85;3.83;;;13.70;99.90;;;;;;5069222;28;20089;-70
2023/09/04 03:24:47;;;;;;;5.32;3.65;;;13.60;99.90;;;;;;5041315;28;20510;-70
2023/09/04 03:27:13;;;;;;;6.10;3.75;;;13.60;99.90;;;;;;5043801;28;20123;-70
2023/09/04 03:29:39;;;;;;;4.95;3.67;;;13.60;99.90;;;;;;5047574;28;20183;-70
2023/09/04 03:32:05;;;;;;;7.13;4.05;;;13.60;99.90;;;;;;5068057;28;20040;-70
2023/09/04 03:34:31;;;;;;;;;;;13.60;99.90;;;;;;5071589;28;20045;-70
2023/09/04 03:36:57;;;;;;;5.50;3.63;;;13.60;99.90;;;;;;5043353;28;20305;-70
2023/09/04 03:39:24;;;;;;;6.97;3.67;;;13.50;99.90;;;;;;5038726;28;20032;-69
2023/09/04 03:41:50;;;;;;;6.80;3.72;;;13.50;99.90;;;;;;5053198;28;20045;-69
2023/09/04 03:44:16;;;;;;;5.95;3.50;;;13.50;99.90;;;;;;5064851;28;20162;-69
2023/09/04 03:46:44;;;;;;;6.28;3.72;;;13.50;99.90;;;;;;5053124;28;20052;-69
2023/09/04 03:49:11;;;;;;;5.50;3.90;;;13.50;99.90;;;;;;5051583;28;20040;-69
2023/09/04 03:51:37;;;;;;;6.97;4.35;;;13.50;99.90;;;;;;5050726;28;20044;-70
2023/09/04 03:54:03;;;;;;;6.63;4.00;;;13.50;99.90;;;;;;5066842;28;20424;-70
2023/09/04 03:56:29;;;;;;;5.68;3.63;;;13.50;99.90;;;;;;5027441;28;20461;-70
2023/09/04 03:58:56;;;;;;;5.85;3.85;;;13.50;99.90;;;;;;5030853;28;20374;-70
2023/09/04 04:01:24;;;;;;;;;;;13.50;99.90;;;;;;5033359;28;20047;-70
2023/09/04 04:03:51;;;;;;;5.68;3.55;;;13.40;99.90;;;;;;5029933;28;19920;-70
2023/09/04 04:06:17;;;;;;;;;;;13.40;99.90;;;;;;5028740;28;20043;-70
2023/09/04 04:08:45;;;;;;;6.28;3.60;;;13.40;99.90;;;;;;5023314;28;19965;-70
2023/09/04 04:11:10;;;;;;;6.93;3.75;;;13.40;99.90;;;;;;5079002;22;20045;-86
2023/09/04 04:13:45;;;;;;;5.85;4.00;;;13.40;99.90;;;;;;5043230;28;20074;-86
2023/09/04 04:16:13;;;;;;;5.60;3.90;;;13.40;99.90;;;;;;5036735;28;20065;-85
2023/09/04 04:18:51;;;;;;;5.60;4.05;;;13.30;99.90;;;;;;5034555;28;20116;-86
2023/09/04 04:21:16;;;;;;;8.13;4.30;;;13.30;99.90;;;;;;5032615;28;20046;-86
2023/09/04 04:23:45;;;;;;;6.38;4.20;;;13.30;99.90;;;;;;5037936;28;20048;-86
2023/09/04 04:26:14;;;;;;;6.25;4.18;;;13.30;99.90;;;;;;5040649;28;20499;-85
2023/09/04 04:28:43;;;;;;;6.93;4.03;;;13.30;99.90;;;;;;5035231;28;20033;-86
2023/09/04 04:31:08;;;;;;;6.60;4.20;;;13.20;99.90;;;;;;5054518;28;20043;-86
2023/09/04 04:33:46;;;;;;;5.90;4.07;;;13.20;99.90;;;;;;5034883;28;20215;-87
2023/09/04 04:36:11;;;;;;;5.20;3.65;;;13.20;99.90;;;;;;5039319;28;20048;-86
2023/09/04 04:38:43;;;;;;;6.68;4.38;;;13.20;99.90;;;;;;5037943;28;20109;-86
2023/09/04 04:41:24;;;;;;;6.03;3.95;;;13.20;99.90;;;;;;5057655;28;20099;-85
2023/09/04 04:43:50;;;;;;;6.97;3.83;;;13.20;99.90;;;;;;5041637;28;20037;-85
2023/09/04 04:46:19;;;;;;;6.30;4.28;;;13.20;99.90;;;;;;5031072;28;20127;-86
2023/09/04 04:48:44;;;;;;;6.93;4.18;;;13.20;99.90;;;;;;5047967;28;20051;-86
2023/09/04 04:51:16;;;;;;;5.88;3.83;;;13.20;99.90;;;;;;5039408;28;20032;-86
2023/09/04 04:53:41;;;;;;;6.20;4.13;;;13.30;99.90;;;;;;5056616;28;20056;-86
2023/09/04 04:56:13;;;;;;;6.40;3.80;;;13.30;99.90;;;;;;5054418;28;20041;-86
2023/09/04 04:58:39;;;;;;;10.00;4.57;;;13.30;99.90;;;;;;5054563;28;20155;-86
2023/09/04 05:01:06;;;;;;;8.15;4.97;;;13.30;99.90;;;;;;5036389;28;20530;-86
2023/09/04 05:03:38;;;;;;;6.70;4.45;;;13.20;99.90;;;;;;5052031;28;20105;-86
2023/09/04 05:06:09;;;;;;;7.80;5.53;;;13.30;99.90;;;;;;5038928;28;20048;-86
2023/09/04 05:08:35;;;;;;;8.82;5.55;;;13.30;99.90;;;;;;5051694;28;20048;-85
2023/09/04 05:11:05;;;;;;;8.20;5.25;;;13.30;99.90;;;;;;5034790;28;20040;-86
2023/09/04 05:13:36;;;;;;;9.63;5.00;;;13.30;99.90;;;;;;5039703;28;20036;-86
2023/09/04 05:16:05;;;;;;;8.07;5.30;;;13.30;99.90;;;;;;5050031;28;20116;-86
2023/09/04 05:18:34;;;;;;;11.25;5.63;;;13.30;99.90;;;;;;5047317;28;20060;-86
2023/09/04 05:21:14;;;;;;;8.38;4.47;;;13.30;99.90;;;;;;5029886;28;20037;-86
2023/09/04 05:23:47;;;;;;;7.15;4.60;;;13.20;99.90;;;;;;5038110;28;20098;-86
2023/09/04 05:26:16;;;;;;;11.57;5.00;;;13.30;99.90;;;;;;5066157;28;20060;-86
2023/09/04 05:28:46;;;;;;;7.35;4.78;;;13.30;99.90;;;;;;5037703;28;20091;-87
2023/09/04 05:31:15;;;;;;;6.32;4.32;;;13.40;99.90;;;;;;5052421;28;20052;-85
2023/09/04 05:33:47;;;;;;;8.13;4.97;;;13.40;99.90;;;;;;5052106;28;20040;-85
2023/09/04 05:36:15;;;;;;;7.70;4.93;;;13.40;99.90;;;;;;5070744;28;20123;-85
2023/09/04 05:38:43;;;;;;;9.75;5.00;;;13.40;99.90;;;;;;5048874;28;20041;-85
2023/09/04 05:41:14;;;;;;;8.35;6.03;;;13.50;99.90;;;;;;5049285;28;20486;-85
2023/09/04 05:43:41;;;;;;;7.78;5.47;;;13.50;99.90;;;;;;5047208;28;20055;-85
2023/09/04 05:46:25;;;;;;;10.15;6.35;;;13.60;99.90;;;;;;5047067;28;20092;-86
2023/09/04 05:49:36;;;;;;;8.77;5.70;;;13.60;99.90;;;;;;5052083;28;20079;-85
2023/09/04 05:52:11;;;;;;;9.38;5.57;;;13.70;99.90;;;;;;5030822;28;20116;-85
2023/09/04 05:54:48;;;;;;;8.30;5.03;;;13.70;99.90;;;;;;5035482;28;20041;-85
2023/09/04 05:57:14;;;;;;;10.15;6.43;;;13.80;99.90;;;;;;5053408;28;20119;-85
2023/09/04 05:59:40;;;;;;;11.70;6.60;;;13.80;99.90;;;;;;5068330;22;20137;-71
2023/09/04 06:02:05;;;;;;;8.27;5.53;;;13.80;99.90;;;;;;5011896;28;20261;-71
2023/09/04 06:04:33;;;;;;;9.43;5.63;;;13.90;99.90;;;;;;5030041;28;20037;-74
2023/09/04 06:07:02;;;;;;;11.05;5.85;;;13.90;99.90;;;;;;5010405;28;20286;-72
2023/09/04 06:09:27;;;;;;;9.70;5.90;;;13.90;99.90;;;;;;5031275;28;20045;-70
2023/09/04 06:11:53;;;;;;;9.13;6.05;;;14.00;99.90;;;;;;5044924;28;20098;-74
2023/09/04 06:14:19;;;;;;;10.38;5.78;;;14.00;99.90;;;;;;5012482;28;20045;-75
2023/09/04 06:16:44;;;;;;;9.65;5.85;;;14.10;99.90;;;;;;5032339;28;20041;-74
2023/09/04 06:19:10;;;;;;;11.03;5.73;;;14.10;99.90;;;;;;5025224;28;20111;-69
2023/09/04 06:21:36;;;;;;;10.52;5.63;;;14.20;99.90;;;;;;5052017;28;20042;-70
2023/09/04 06:24:03;;;;;;;10.07;5.78;;;14.30;99.90;;;;;;5034159;28;20093;-70
2023/09/04 06:26:29;;;;;;;9.30;5.90;;;14.30;99.90;;;;;;5026351;28;20382;-69
2023/09/04 06:28:55;;;;;;;9.55;5.25;;;14.40;99.90;;;;;;5034315;28;20098;-70
2023/09/04 06:31:21;;;;;;;7.95;5.20;;;14.50;99.90;;;;;;5021477;28;20049;-69
2023/09/04 06:33:47;;;;;;;;;;;14.50;99.90;;;;;;5025111;28;20048;-69
2023/09/04 06:36:14;;;;;;;12.00;5.55;;;14.50;99.90;;;;;;5025529;28;20008;-70
2023/09/04 06:38:40;;;;;;;10.18;5.47;;;14.60;99.90;;;;;;5028374;28;20650;-69
2023/09/04 06:41:05;;;;;;;7.93;5.22;;;14.60;99.90;;;;;;5046635;28;20034;-69
2023/09/04 06:43:31;;;;;;;9.35;5.90;;;14.70;99.90;;;;;;5031323;28;20037;-69
2023/09/04 06:45:58;;;;;;;9.77;5.53;;;14.80;99.90;;;;;;5014723;28;20052;-70
2023/09/04 06:48:24;;;;;;;9.68;5.47;;;14.80;99.90;;;;;;5035485;28;20328;-69
2023/09/04 06:50:50;;;;;;;10.57;5.55;;;14.80;99.90;;;;;;5029985;28;20048;-67
2023/09/04 06:53:16;;;;;;;9.20;5.25;;;14.90;99.90;;;;;;5030879;28;20053;-67
2023/09/04 06:55:42;;;;;;;7.30;4.65;;;14.90;99.90;;;;;;5032497;28;20390;-67
2023/09/04 06:58:08;;;;;;;8.90;4.90;;;15.00;99.90;;;;;;5035490;28;20041;-67
2023/09/04 07:00:34;;;;;;;8.95;4.93;;;15.10;99.90;;;;;;5021361;28;20045;-67
2023/09/04 07:03:00;;;;;;;8.55;4.55;;;15.20;99.90;;;;;;5030068;28;20406;-67
2023/09/04 07:05:26;;;;;;;7.50;5.32;;;15.20;99.90;;;;;;5038521;28;20044;-67
2023/09/04 07:07:51;;;;;;;6.85;4.53;;;15.30;99.90;;;;;;5046959;28;20045;-67
2023/09/04 07:10:17;;;;;;;7.97;4.68;;;15.40;99.90;;;;;;5035147;28;20594;-67
2023/09/04 07:12:43;;;;;;;10.43;5.70;;;15.40;99.90;;;;;;5035283;28;20178;-67
2023/09/04 07:15:09;;;;;;;7.80;5.20;;;15.50;99.90;;;;;;5026551;28;20060;-67
2023/09/04 07:17:34;;;;;;;11.45;5.18;;;15.60;99.90;;;;;;5032467;28;20052;-67
2023/09/04 07:20:00;;;;;;;8.02;4.88;;;15.70;99.90;;;;;;5022535;28;20481;-67
2023/09/04 07:22:26;;;;;;;7.78;4.60;;;15.70;99.90;;;;;;5033083;28;20119;-67
2023/09/04 07:24:52;;;;;;;9.77;4.72;;;15.80;99.90;;;;;;5047578;28;20069;-67
2023/09/04 07:27:18;;;;;;;7.35;4.20;;;15.90;99.90;;;;;;5040881;28;20052;-67
2023/09/04 07:29:43;;;;;;;6.75;4.47;;;16.00;99.90;;;;;;5036569;28;20047;-67
2023/09/04 07:32:09;;;;;;;6.43;4.35;;;16.10;99.90;;;;;;5048807;28;20128;-67
2023/09/04 07:34:35;;;;;;;6.47;4.18;;;16.20;99.90;;;;;;5050744;28;20033;-67
2023/09/04 07:37:01;;;;;;;9.35;4.32;;;16.20;99.90;;;;;;5022915;28;20045;-67
2023/09/04 07:39:27;;;;;;;8.27;3.95;;;16.40;99.90;;;;;;5049181;28;20045;-67
2023/09/04 07:41:55;;;;;;;6.97;4.20;;;16.40;99.90;;;;;;5049952;28;20045;-67
2023/09/04 07:44:21;;;;;;;5.75;3.92;;;16.50;99.90;;;;;;5027518;28;20044;-68
2023/09/04 07:46:47;;;;;;;6.45;3.75;;;16.60;99.90;;;;;;5027765;28;20402;-69
2023/09/04 07:49:13;;;;;;;5.95;3.78;;;16.70;99.90;;;;;;5024996;28;20053;-69
2023/09/04 07:51:39;;;;;;;5.32;3.70;;;16.70;99.90;;;;;;5027569;28;20433;-68
2023/09/04 07:54:05;;;;;;;6.75;3.42;;;16.80;99.90;;;;;;5011731;28;20068;-68
2023/09/04 07:56:31;;;;;;;5.90;3.70;;;16.90;99.90;;;;;;5026401;28;20490;-69
2023/09/04 07:58:57;;;;;;;5.80;3.80;;;17.00;99.90;;;;;;5026260;28;20536;-68
2023/09/04 08:01:22;;;;;;;6.03;3.33;;;17.10;99.90;;;;;;5034465;28;20064;-68
2023/09/04 08:03:48;;;;;;;4.95;3.30;;;17.20;99.90;;;;;;5029720;28;20910;-68
2023/09/04 08:06:14;;;;;;;5.18;3.25;;;17.20;99.90;;;;;;5030144;28;20056;-68
2023/09/04 08:08:40;;;;;;;5.07;3.38;;;17.40;99.90;;;;;;5028867;28;20045;-69
2023/09/04 08:11:05;;;;;;;7.57;3.88;;;17.40;99.90;;;;;;5051555;28;20390;-68
2023/09/04 08:13:31;;;;;;;5.28;3.00;;;17.50;99.90;;;;;;5034633;28;20052;-68
2023/09/04 08:15:57;;;;;;;4.55;2.85;;;17.60;99.90;;;;;;5029025;28;20052;-69
2023/09/04 08:18:22;;;;;;;6.90;3.20;;;17.70;99.90;;;;;;5045745;28;20033;-68
2023/09/04 08:20:49;;;;;;;5.45;2.38;;;17.80;99.90;;;;;;5042080;28;20384;-68
2023/09/04 08:23:15;;;;;;;5.85;2.85;;;17.90;99.90;;;;;;5028230;28;20079;-68
2023/09/04 08:25:41;;;;;;;5.25;2.38;;;18.00;99.90;;;;;;5030543;28;20470;-68
2023/09/04 08:28:06;;;;;;;3.55;2.10;;;18.10;99.90;;;;;;5033757;28;20110;-68
2023/09/04 08:30:32;;;;;;;4.95;2.90;;;18.10;99.90;;;;;;5053004;28;20049;-69
2023/09/04 08:32:58;;;;;;;5.35;2.30;;;18.20;99.90;;;;;;5021659;28;20464;-68
2023/09/04 08:35:28;;;;;;;2.88;2.10;;;18.30;99.90;;;;;;5023841;28;20072;-69
2023/09/04 08:37:55;;;;;;;4.07;2.63;;;18.40;99.90;;;;;;5021530;28;20103;-69
2023/09/04 08:40:20;;;;;;;4.95;2.30;;;18.40;99.90;;;;;;5046176;28;20032;-69
2023/09/04 08:42:49;;;;;;;4.38;2.53;;;18.60;99.90;;;;;;5028111;28;20510;-68
2023/09/04 08:45:18;;;;;;;4.85;1.98;;;18.60;99.90;;;;;;5027435;28;20384;-69
2023/09/04 08:47:44;;;;;;;3.95;2.45;;;18.70;99.90;;;;;;5046825;28;20044;-69
2023/09/04 08:50:13;;;;;;;7.50;1.77;;;18.80;99.90;;;;;;5027548;28;20566;-69
2023/09/04 08:52:40;;;;;;;3.80;1.90;;;18.90;99.90;;;;;;5029230;28;20052;-69
2023/09/04 08:55:06;;;;;;;3.28;1.80;;;19.00;99.90;;;;;;5030839;28;20128;-69
2023/09/04 08:57:35;;;;;;;3.05;2.00;;;19.10;99.90;;;;;;5025662;28;20091;-69
2023/09/04 09:00:03;;;;;;;3.20;1.90;;;19.20;99.90;;;;;;5041255;28;20033;-69
2023/09/04 09:02:29;;;;;;;3.50;1.75;;;19.30;99.90;;;;;;5031866;28;20064;-68
2023/09/04 09:04:56;;;;;;;3.80;2.13;;;19.30;99.90;;;;;;5047649;28;20048;-68
2023/09/04 09:07:24;;;;;;;3.33;1.90;;;19.50;99.90;;;;;;5043310;28;20094;-69
2023/09/04 09:09:51;;;;;;;2.30;1.48;;;19.50;99.90;;;;;;5030957;28;20130;-68
2023/09/04 09:12:17;;;;;;;4.00;1.88;;;19.60;99.90;;;;;;5031907;28;20398;-68
2023/09/04 09:14:43;;;;;;;1.92;1.45;;;19.70;99.90;;;;;;5048818;28;20040;-68
2023/09/04 09:17:11;;;;;;;4.07;2.03;;;19.80;99.90;;;;;;5025658;28;20072;-69
2023/09/04 09:19:38;;;;;;;2.97;1.98;;;19.90;99.90;;;;;;5023253;28;20037;-68
2023/09/04 09:22:15;;;;;;;3.03;1.92;;;20.00;99.90;;;;;;5042753;28;20040;-68
2023/09/04 09:25:00;;;;;;;4.30;1.70;;;20.10;99.90;;;;;;5031507;28;20051;-69
2023/09/04 09:27:32;;;;;;;2.95;1.70;;;20.30;99.90;;;;;;5024364;28;20545;-72
2023/09/04 09:30:00;;;;;;;3.45;1.75;;;20.30;99.90;;;;;;5009838;28;20052;-69
2023/09/04 09:32:33;;;;;;;3.05;1.70;;;20.40;99.90;;;;;;5019083;28;20525;-68
2023/09/04 09:35:02;;;;;;;5.35;1.70;;;20.50;99.90;;;;;;5030822;28;20032;-68
2023/09/04 09:37:32;;;;;;;4.57;2.03;;;20.60;99.90;;;;;;5020932;28;20062;-69
2023/09/04 09:39:58;;;;;;;3.05;1.38;;;20.70;99.90;;;;;;5028474;28;20043;-69
2023/09/04 09:42:27;;;;;;;2.53;1.33;;;20.80;99.90;;;;;;5033344;28;20398;-69
2023/09/04 09:44:53;;;;;;;3.22;1.35;;;20.90;99.90;;;;;;5024903;28;20501;-69
2023/09/04 09:47:21;;;;;;;4.68;1.60;;;21.00;99.90;;;;;;5026587;28;20048;-68
2023/09/04 09:49:46;;;;;;;3.13;1.50;;;21.10;99.90;;;;;;5028235;28;20077;-69
2023/09/04 09:52:13;;;;;;;2.42;1.40;;;21.20;99.90;;;;;;5025957;28;20069;-69
2023/09/04 09:54:47;;;;;;;2.85;1.42;;;21.30;99.90;;;;;;5025535;28;20041;-69
2023/09/04 09:57:17;;;;;;;3.20;1.33;;;21.40;99.90;;;;;;5015019;28;20207;-68
2023/09/04 09:59:45;;;;;;;3.65;1.30;;;21.50;99.90;;;;;;5042890;28;20083;-69
2023/09/04 10:02:24;;;;;;;3.65;1.60;;;21.60;99.90;;;;;;5013653;28;20037;-69
2023/09/04 10:04:50;;;;;;;2.47;1.40;;;21.60;99.90;;;;;;5021058;28;20094;-69
2023/09/04 10:07:27;;;;;;;3.53;1.00;;;21.80;99.90;;;;;;5028807;28;20044;-69
2023/09/04 10:10:03;;;;;;;4.20;1.45;;;21.80;99.90;;;;;;5029567;28;20518;-69
2023/09/04 10:12:33;;;;;;;3.67;1.20;;;21.90;99.90;;;;;;5027708;28;20045;-68
2023/09/04 10:15:01;;;;;;;2.88;1.25;;;22.00;99.90;;;;;;5024152;28;20692;-68
2023/09/04 10:17:45;;;;;;;4.03;1.67;;;22.10;99.90;;;;;;5033384;28;20260;-68
2023/09/04 10:22:47;;;;;;;3.20;0.95;;;22.20;99.90;;;;;;5087347;28;20044;-70
2023/09/04 10:25:43;;;;;;;3.25;1.33;;;22.30;99.90;;;;;;5073581;28;20154;-69
2023/09/04 10:28:18;;;;;;;3.05;0.77;;;22.30;99.90;;;;;;5022970;28;20163;-69
2023/09/04 10:30:49;;;;;;;3.08;1.15;;;22.40;99.90;;;;;;5051529;28;20094;-69
2023/09/04 10:33:15;;;;;;;3.60;1.15;;;22.50;99.90;;;;;;5052456;28;20036;-69
2023/09/04 10:35:41;;;;;;;2.88;1.42;;;22.50;99.90;;;;;;5059602;28;20463;-69
2023/09/04 10:38:08;;;;;;;2.40;1.20;;;22.60;99.90;;;;;;5033484;28;20111;-70
2023/09/04 10:40:35;;;;;;;2.55;1.35;;;22.60;99.90;;;;;;5067352;28;20040;-69
2023/09/04 10:43:03;;;;;;;1.80;1.13;;;22.70;99.90;;;;;;5070833;28;20041;-70
2023/09/04 10:45:30;;;;;;;2.75;1.00;;;22.80;99.90;;;;;;5057636;28;20093;-69
2023/09/04 10:47:56;;;;;;;3.05;1.52;;;22.90;99.90;;;;;;5050560;28;20062;-71
2023/09/04 10:50:38;;;;;;;3.35;1.35;;;23.00;99.90;;;;;;5052675;28;20045;-69
2023/09/04 10:53:06;;;;;;;2.10;1.20;;;23.00;99.90;;;;;;5045541;28;20507;-69
2023/09/04 10:55:34;;;;;;;2.03;1.10;;;23.10;99.90;;;;;;5056170;28;20037;-70
2023/09/04 10:58:02;;;;;;;3.70;1.30;;;23.20;99.90;;;;;;5050818;28;20033;-69
2023/09/04 11:00:34;;;;;;;2.53;1.00;;;23.30;99.90;;;;;;5053643;28;20036;-74
2023/09/04 11:03:21;;;;;;;3.45;1.30;;;23.40;99.90;;;;;;5045628;28;20382;-74
2023/09/04 11:06:02;;;;;;;2.60;1.10;;;23.50;99.90;;;;;;5065059;28;20052;-74
2023/09/04 11:08:32;;;;;;;2.38;1.20;;;23.70;99.90;;;;;;5046519;28;20061;-74
2023/09/04 11:11:03;;;;;;;1.92;0.90;;;23.80;99.90;;;;;;5049645;28;20043;-74
2023/09/04 11:13:33;;;;;;;3.00;1.10;;;23.90;99.90;;;;;;5048896;28;21534;-74
2023/09/04 11:16:04;;;;;;;1.75;1.02;;;24.00;99.90;;;;;;5073742;28;20375;-74
2023/09/04 11:18:31;;;;;;;2.15;1.38;;;24.10;99.90;;;;;;5065858;28;20072;-74
2023/09/04 11:20:57;;;;;;;2.90;1.10;;;24.10;99.90;;;;;;5049686;28;20032;-73
2023/09/04 11:23:27;;;;;;;2.28;1.10;;;24.20;99.90;;;;;;5052806;28;20340;-74
2023/09/04 11:25:52;;;;;;;3.45;1.00;;;24.10;99.90;;;;;;5051475;28;20817;-73
2023/09/04 11:28:23;;;;;;;3.70;1.50;;;24.20;99.90;;;;;;5043106;28;20056;-74
2023/09/04 11:31:00;;;;;;;2.85;1.13;;;24.10;99.90;;;;;;5062151;28;20048;-74
2023/09/04 11:33:27;;;;;;;2.40;1.20;;;24.20;99.90;;;;;;5051610;28;20112;-74
2023/09/04 11:36:04;;;;;;;2.85;1.20;;;24.30;99.90;;;;;;5044966;28;20139;-73
2023/09/04 11:38:32;;;;;;;2.08;1.00;;;24.30;99.90;;;;;;5048280;28;20287;-74
2023/09/04 11:40:58;;;;;;;1.35;0.90;;;24.30;99.90;;;;;;5045138;28;20040;-74
2023/09/04 11:43:28;;;;;;;2.25;1.00;;;24.30;99.90;;;;;;5054971;28;20410;-74
2023/09/04 11:45:59;;;;;;;2.00;1.00;;;24.30;99.90;;;;;;5052072;28;20076;-74
2023/09/04 11:48:26;;;;;;;2.28;0.90;;;24.40;99.90;;;;;;5048330;28;20040;-74
2023/09/04 11:50:53;;;;;;;3.13;1.17;;;24.50;99.90;;;;;;5054865;28;20490;-74
2023/09/04 11:53:19;;;;;;;3.33;1.17;;;24.60;99.90;;;;;;5051251;28;20041;-74
2023/09/04 11:55:46;;;;;;;3.40;1.05;;;24.60;99.90;;;;;;5050176;28;20245;-74
2023/09/04 11:58:14;;;;;;;2.70;1.20;;;24.70;99.90;;;;;;5041787;28;20068;-74
2023/09/04 12:00:40;;;;;;;1.63;1.00;;;24.80;99.90;;;;;;5058326;28;20070;-74
2023/09/04 12:03:06;;;;;;;2.08;1.10;;;24.80;99.90;;;;;;5064258;28;20036;-74
2023/09/04 12:05:34;;;;;;;1.73;1.08;;;24.70;99.90;;;;;;5043816;28;20062;-74
2023/09/04 12:08:00;;;;;;;1.40;0.90;;;24.80;99.90;;;;;;5050191;28;20215;-74
2023/09/04 12:10:25;;;;;;;3.22;1.67;;;24.80;99.90;;;;;;5049525;28;20511;-74
2023/09/04 12:12:57;;;;;;;1.40;0.90;;;24.90;99.90;;;;;;5055154;28;20040;-74
2023/09/04 12:15:31;;;;;;;1.65;0.98;;;25.00;99.90;;;;;;5047626;28;20062;-74
2023/09/04 12:18:05;;;;;;;2.22;0.90;;;25.10;99.90;;;;;;5044593;28;20056;-74
2023/09/04 12:20:41;;;;;;;1.67;1.00;;;25.20;99.90;;;;;;5034963;28;20393;-74
2023/09/04 12:23:07;;;;;;;3.38;1.10;;;25.40;99.90;;;;;;5057446;28;20062;-74
2023/09/04 12:25:35;;;;;;;2.35;0.90;;;25.50;99.90;;;;;;5063570;28;20054;-74
2023/09/04 12:28:03;;;;;;;2.42;1.20;;;25.60;99.90;;;;;;5034196;28;20040;-74
2023/09/04 12:30:29;;;;;;;1.90;0.80;;;25.70;99.90;;;;;;5070728;28;20039;-74
2023/09/04 12:32:58;;;;;;;1.88;1.00;;;25.70;99.90;;;;;;5041788;28;20036;-74
2023/09/04 12:35:24;;;;;;;3.05;0.70;;;25.80;99.90;;;;;;5058455;28;20050;-72
2023/09/04 12:37:53;;;;;;;1.48;0.80;;;25.90;99.90;;;;;;5051678;28;20513;-73
2023/09/04 12:40:19;;;;;;;3.90;0.80;;;25.90;99.90;;;;;;5048910;28;20434;-72
2023/09/04 12:42:45;;;;;;;2.47;1.00;;;26.10;99.90;;;;;;5045384;28;20058;-72
2023/09/04 12:45:10;;;;;;;1.35;0.63;;;26.10;99.90;;;;;;5041914;28;20116;-72
2023/09/04 12:47:36;;;;;;;1.73;1.08;;;26.20;99.90;;;;;;5048971;28;20131;-73
2023/09/04 12:50:02;;;;;;;1.77;0.90;;;26.30;99.90;;;;;;5051496;28;20036;-68
2023/09/04 12:52:30;;;;;;;4.10;1.20;;;26.40;99.90;;;;;;5039800;28;20086;-70
2023/09/04 12:54:56;;;;;;;3.50;1.05;;;26.40;99.90;;;;;;5047716;28;20044;-73
2023/09/04 12:57:22;;;;;;;1.73;0.90;;;26.50;99.90;;;;;;5049678;28;20049;-69